TimeEDT,TemperatureF,Dew PointF,Humidity,Sea Level PressureIn,VisibilityMPH,Wind Direction,Wind SpeedMPH,Gust SpeedMPH,PrecipitationIn,Events,Conditions,WindDirDegrees,DateUTC
12:53 AM,15.8,15.8,100,-9999,0.0,NW,32.2,36.8,N/A,Fog-Snow,Light Snow Showers,310,2013-03-30 04:53:00
1:56 AM,15.8,15.8,100,-9999,0.0,NW,29.9,-,N/A,Fog-Snow,Light Snow Showers,310,2013-03-30 05:56:00
2:56 AM,14.0,14.0,100,-9999,0.1,NW,35.7,-,N/A,Fog-Snow,Light Snow Showers,320,2013-03-30 06:56:00
3:55 AM,14.0,14.0,100,-9999,0.1,NW,26.5,33.4,N/A,Fog,Light Freezing Fog,320,2013-03-30 07:55:00
4:55 AM,14.0,8.6,79,-9999,100.0,NW,33.4,-,N/A,,Scattered Clouds,320,2013-03-30 08:55:00
5:53 AM,14.0,8.6,79,-9999,100.0,NNW,32.2,36.8,N/A,,Scattered Clouds,330,2013-03-30 09:53:00
6:54 AM,14.0,8.6,79,-9999,0.0,NNW,28.8,38.0,N/A,,Partly Cloudy,330,2013-03-30 10:54:00
7:55 AM,14.0,8.6,79,-9999,100.0,NNW,25.3,36.8,N/A,,Partly Cloudy,330,2013-03-30 11:55:00
8:55 AM,15.8,6.8,68,-9999,100.0,NW,34.5,41.4,N/A,,Partly Cloudy,320,2013-03-30 12:55:00
9:54 AM,15.8,12.2,86,-9999,100.0,NW,36.8,-,N/A,,Partly Cloudy,320,2013-03-30 13:54:00
10:56 AM,17.6,10.4,73,-9999,100.0,NW,33.4,41.4,N/A,,Partly Cloudy,310,2013-03-30 14:56:00
11:53 AM,17.6,14.0,86,-9999,100.0,WNW,35.7,40.3,N/A,,Partly Cloudy,300,2013-03-30 15:53:00
12:58 PM,17.6,12.2,79,-9999,100.0,WNW,31.1,34.5,N/A,,Partly Cloudy,300,2013-03-30 16:58:00
1:51 PM,17.6,8.6,68,-9999,100.0,WNW,34.5,-,N/A,,Partly Cloudy,300,2013-03-30 17:51:00
2:58 PM,17.6,8.6,68,-9999,120.0,NW,31.1,42.6,N/A,,Partly Cloudy,310,2013-03-30 18:58:00
3:52 PM,17.6,8.6,68,-9999,120.0,WNW,33.4,-,N/A,,Partly Cloudy,290,2013-03-30 19:52:00
4:52 PM,17.6,6.8,63,-9999,120.0,WNW,32.2,42.6,N/A,,Partly Cloudy,300,2013-03-30 20:52:00
5:55 PM,17.6,6.8,63,-9999,120.0,WNW,38.0,-,N/A,,Partly Cloudy,300,2013-03-30 21:55:00
6:54 PM,15.8,6.8,68,-9999,120.0,WNW,38.0,-,N/A,Snow,Low Drifting Snow,300,2013-03-30 22:54:00
7:54 PM,14.0,5.0,67,-9999,120.0,WNW,38.0,-,N/A,,Partly Cloudy,300,2013-03-30 23:54:00
8:57 PM,14.0,6.8,73,-9999,120.0,WNW,34.5,-,N/A,,Clear,300,2013-03-31 00:57:00
9:51 PM,14.0,3.2,62,-9999,130.0,WNW,34.5,-,N/A,,Partly Cloudy,300,2013-03-31 01:51:00
10:52 PM,14.0,1.4,57,-9999,130.0,NW,39.1,-,N/A,,Clear,310,2013-03-31 02:52:00
11:55 PM,14.0,1.4,57,-9999,120.0,WNW,38.0,-,N/A,,Clear,300,2013-03-31 03:55:00